createdAt,value
2022-07-31T00:00:26.727Z,13.60
2022-07-31T00:02:54.411Z,13.60
2022-07-31T00:05:22.827Z,13.60
2022-07-31T00:07:50.335Z,13.60
2022-07-31T00:10:17.727Z,13.50
2022-07-31T00:12:45.137Z,13.50
2022-07-31T00:15:13.123Z,13.50
2022-07-31T00:17:41.448Z,13.40
2022-07-31T00:20:13.432Z,13.50
2022-07-31T00:22:41.171Z,13.50
2022-07-31T00:25:09.662Z,13.60
2022-07-31T00:27:37.025Z,13.50
2022-07-31T00:30:05.109Z,13.50
2022-07-31T00:32:32.463Z,13.50
2022-07-31T00:34:59.831Z,13.60
2022-07-31T00:37:27.463Z,13.60
2022-07-31T00:39:54.903Z,13.50
2022-07-31T00:42:24.400Z,13.60
2022-07-31T00:44:52.665Z,13.50
2022-07-31T00:47:23.901Z,13.50
2022-07-31T00:49:53.581Z,13.40
2022-07-31T00:52:21.138Z,13.40
2022-07-31T00:54:48.686Z,13.30
2022-07-31T00:57:16.365Z,13.30
2022-07-31T00:59:44.234Z,13.30
2022-07-31T01:02:11.915Z,13.30
2022-07-31T01:04:41.677Z,13.20
2022-07-31T01:07:09.285Z,13.20
2022-07-31T01:09:36.817Z,13.20
2022-07-31T01:12:13.056Z,13.20
2022-07-31T01:14:45.918Z,13.20
2022-07-31T01:17:15.292Z,13.10
2022-07-31T01:19:46.209Z,13.20
2022-07-31T01:22:55.006Z,13.20
2022-07-31T01:26:00.286Z,13.20
2022-07-31T01:29:36.868Z,13.20
2022-07-31T01:32:14.743Z,13.10
2022-07-31T01:34:52.561Z,13.10
2022-07-31T01:37:28.838Z,13.10
2022-07-31T01:40:03.240Z,13.10
2022-07-31T01:42:34.701Z,13.10
2022-07-31T01:45:04.160Z,13.00
2022-07-31T01:47:32.992Z,13.00
2022-07-31T01:50:02.854Z,13.00
2022-07-31T01:52:32.891Z,13.00
2022-07-31T01:55:01.781Z,13.00
2022-07-31T01:57:32.784Z,13.00
2022-07-31T02:00:05.069Z,13.00
2022-07-31T02:02:43.829Z,12.90
2022-07-31T02:05:12.497Z,12.90
2022-07-31T02:07:42.095Z,12.90
2022-07-31T02:10:12.398Z,12.80
2022-07-31T02:12:41.340Z,12.80
2022-07-31T02:15:12.452Z,12.80
2022-07-31T02:17:44.625Z,12.90
2022-07-31T02:20:46.034Z,12.80
2022-07-31T02:23:13.523Z,12.90
2022-07-31T02:25:41.882Z,13.10
2022-07-31T02:28:12.982Z,13.10
2022-07-31T02:30:43.727Z,13.20
2022-07-31T02:33:16.711Z,13.30
2022-07-31T02:35:47.918Z,13.50
2022-07-31T02:38:23.032Z,13.70
2022-07-31T02:40:57.591Z,13.90
2022-07-31T02:43:26.837Z,13.90
2022-07-31T02:45:57.477Z,14.20
2022-07-31T02:48:26.164Z,14.30
2022-07-31T02:50:56.099Z,14.30
2022-07-31T02:53:24.176Z,14.60
2022-07-31T02:55:54.147Z,14.50
2022-07-31T02:58:21.572Z,14.60
2022-07-31T03:00:58.716Z,14.70
2022-07-31T03:03:26.131Z,14.90
2022-07-31T03:05:53.735Z,15.00
2022-07-31T03:08:21.154Z,15.00
2022-07-31T03:10:52.192Z,15.00
2022-07-31T03:13:22.655Z,14.90
2022-07-31T03:15:51.258Z,15.10
2022-07-31T03:18:22.190Z,15.30
2022-07-31T03:20:51.892Z,15.30
2022-07-31T03:23:21.770Z,15.20
2022-07-31T03:26:05.851Z,15.10
2022-07-31T03:28:36.301Z,15.10
2022-07-31T03:31:04.084Z,15.00
2022-07-31T03:33:32.149Z,14.90
2022-07-31T03:36:00.562Z,14.90
2022-07-31T03:38:38.224Z,14.80
2022-07-31T03:41:10.018Z,15.00
2022-07-31T03:43:44.073Z,15.10
2022-07-31T03:46:20.096Z,14.90
2022-07-31T03:48:51.858Z,14.80
2022-07-31T03:51:19.879Z,14.80
2022-07-31T03:53:48.714Z,14.80
2022-07-31T03:56:45.465Z,14.80
2022-07-31T03:59:15.776Z,14.70
2022-07-31T04:01:58.001Z,14.70
2022-07-31T04:04:51.934Z,15.00
2022-07-31T04:07:20.878Z,15.00
2022-07-31T04:09:50.926Z,15.10
2022-07-31T04:12:18.388Z,15.30
2022-07-31T04:14:46.137Z,15.20
2022-07-31T04:17:13.723Z,15.30
2022-07-31T04:19:41.543Z,15.30
2022-07-31T04:22:09.436Z,15.30
2022-07-31T04:24:38.039Z,15.50
2022-07-31T04:27:24.084Z,15.50
2022-07-31T04:29:51.663Z,15.50
2022-07-31T04:32:21.739Z,15.60
2022-07-31T04:34:54.673Z,15.70
2022-07-31T04:37:22.143Z,15.80
2022-07-31T04:39:49.739Z,15.90
2022-07-31T04:42:17.292Z,16.00
2022-07-31T04:44:45.204Z,16.00
2022-07-31T04:47:12.802Z,16.20
2022-07-31T04:49:43.391Z,16.20
2022-07-31T04:52:15.894Z,16.30
2022-07-31T04:54:47.996Z,16.40
2022-07-31T04:57:19.869Z,16.50
2022-07-31T04:59:58.968Z,16.50
2022-07-31T05:02:31.370Z,16.60
2022-07-31T05:04:58.978Z,16.70
2022-07-31T05:07:39.236Z,16.90
2022-07-31T05:10:32.296Z,17.00
2022-07-31T05:12:59.970Z,17.00
2022-07-31T05:15:27.913Z,17.10
2022-07-31T05:17:57.021Z,17.10
2022-07-31T05:20:50.611Z,17.20
2022-07-31T05:23:41.733Z,17.30
2022-07-31T05:26:15.932Z,17.40
2022-07-31T05:28:44.275Z,17.50
2022-07-31T05:31:14.181Z,17.50
2022-07-31T05:33:41.566Z,17.60
2022-07-31T05:36:09.037Z,17.70
2022-07-31T05:38:36.776Z,17.80
2022-07-31T05:41:24.151Z,17.80
2022-07-31T05:44:02.944Z,18.00
2022-07-31T05:46:40.190Z,18.10
2022-07-31T05:49:08.082Z,18.20
2022-07-31T05:51:35.639Z,18.30
2022-07-31T05:54:03.160Z,18.40
2022-07-31T05:56:48.845Z,18.60
2022-07-31T05:59:20.001Z,18.80
2022-07-31T06:01:47.548Z,19.00
2022-07-31T06:04:15.635Z,19.10
2022-07-31T06:06:45.811Z,19.40
2022-07-31T06:09:13.202Z,19.50
2022-07-31T06:11:44.218Z,19.70
2022-07-31T06:14:11.660Z,19.90
2022-07-31T06:17:08.459Z,20.10
2022-07-31T06:19:38.452Z,20.40
2022-07-31T06:22:06.351Z,20.60
2022-07-31T06:24:34.002Z,20.60
2022-07-31T06:27:02.845Z,20.90
2022-07-31T06:29:42.125Z,21.00
2022-07-31T06:32:12.482Z,21.20
2022-07-31T06:34:40.463Z,21.10
2022-07-31T06:37:08.164Z,21.00
2022-07-31T06:39:55.183Z,21.20
2022-07-31T06:42:45.633Z,21.40
2022-07-31T06:45:50.798Z,21.50
2022-07-31T06:48:44.126Z,21.50
2022-07-31T06:51:30.343Z,22.00
2022-07-31T06:53:59.700Z,22.50
2022-07-31T06:56:28.372Z,22.80
2022-07-31T06:58:56.487Z,22.90
2022-07-31T07:01:24.124Z,22.90
2022-07-31T07:03:52.628Z,23.30
2022-07-31T07:06:20.509Z,23.10
2022-07-31T07:08:47.963Z,23.50
2022-07-31T07:11:19.118Z,23.90
2022-07-31T07:13:47.016Z,23.90
2022-07-31T07:16:18.639Z,24.10
2022-07-31T07:18:46.059Z,24.30
2022-07-31T07:21:13.725Z,24.50
2022-07-31T07:23:41.314Z,24.90
2022-07-31T07:26:37.556Z,24.50
2022-07-31T07:29:05.086Z,24.40
2022-07-31T07:31:33.751Z,24.80
2022-07-31T07:34:06.046Z,25.20
2022-07-31T07:36:33.756Z,25.60
2022-07-31T07:39:09.250Z,25.60
2022-07-31T07:41:38.643Z,26.00
2022-07-31T07:44:07.263Z,25.60
2022-07-31T07:46:34.971Z,25.70
2022-07-31T07:49:04.829Z,26.00
2022-07-31T07:51:36.985Z,26.00
2022-07-31T07:54:24.541Z,25.80
2022-07-31T07:57:20.537Z,25.70
2022-07-31T08:00:26.457Z,25.90
2022-07-31T08:03:48.260Z,26.00
2022-07-31T08:05:49.316Z,26.00
2022-07-31T08:08:16.794Z,26.20
2022-07-31T08:11:04.942Z,26.30
2022-07-31T08:13:47.871Z,26.40
2022-07-31T08:16:35.866Z,26.60
2022-07-31T08:19:03.356Z,26.50
2022-07-31T08:21:31.729Z,26.40
2022-07-31T08:23:59.080Z,26.10
2022-07-31T08:26:27.466Z,26.30
2022-07-31T08:28:56.331Z,26.40
2022-07-31T08:31:26.825Z,26.40
2022-07-31T08:34:13.052Z,26.50
2022-07-31T08:37:50.417Z,26.30
2022-07-31T08:39:50.281Z,26.10
2022-07-31T08:42:18.561Z,26.50
2022-07-31T08:44:48.154Z,25.70
2022-07-31T08:47:18.613Z,26.10
2022-07-31T08:49:48.375Z,26.20
2022-07-31T08:52:26.159Z,26.10
2022-07-31T08:55:09.529Z,26.20
2022-07-31T08:57:37.168Z,26.90
2022-07-31T09:00:07.346Z,26.80
2022-07-31T09:02:35.107Z,26.90
2022-07-31T09:05:42.537Z,26.70
2022-07-31T09:08:15.406Z,26.80
2022-07-31T09:10:50.024Z,27.20
2022-07-31T09:13:19.681Z,27.20
2022-07-31T09:15:50.983Z,27.60
2022-07-31T09:18:22.125Z,27.10
2022-07-31T09:21:02.202Z,27.20
2022-07-31T09:23:30.662Z,27.60
2022-07-31T09:26:04.955Z,27.50
2022-07-31T09:28:41.805Z,27.20
2022-07-31T09:31:10.511Z,27.40
2022-07-31T09:34:10.069Z,27.30
2022-07-31T09:36:37.443Z,27.80
2022-07-31T09:39:28.535Z,27.80
2022-07-31T09:42:37.261Z,28.20
2022-07-31T09:45:21.416Z,28.00
2022-07-31T09:48:03.783Z,27.80
2022-07-31T09:50:31.149Z,28.00
2022-07-31T09:53:00.845Z,27.60
2022-07-31T09:55:29.674Z,27.00
2022-07-31T09:57:59.506Z,26.60
2022-07-31T10:00:33.335Z,26.90
2022-07-31T10:03:01.701Z,27.80
2022-07-31T10:05:31.509Z,28.50
2022-07-31T10:08:02.341Z,28.40
2022-07-31T10:10:52.936Z,27.70
2022-07-31T10:13:26.320Z,27.50
2022-07-31T10:15:59.116Z,27.90
2022-07-31T10:18:59.547Z,27.80
2022-07-31T10:21:57.702Z,28.30
2022-07-31T10:24:32.821Z,28.50
2022-07-31T10:27:07.929Z,28.70
2022-07-31T10:29:39.422Z,28.50
2022-07-31T10:32:08.508Z,28.90
2022-07-31T10:34:41.241Z,29.00
2022-07-31T10:38:15.767Z,29.00
2022-07-31T10:42:06.327Z,28.80
2022-07-31T10:44:38.767Z,27.30
2022-07-31T10:47:19.793Z,26.30
2022-07-31T10:50:02.280Z,26.80
2022-07-31T10:52:34.957Z,27.40
2022-07-31T10:55:25.848Z,27.20
2022-07-31T10:58:21.956Z,27.20
2022-07-31T11:01:09.375Z,27.80
2022-07-31T11:04:05.201Z,27.80
2022-07-31T11:07:01.778Z,27.30
2022-07-31T11:09:51.174Z,26.80
2022-07-31T11:13:08.371Z,27.40
2022-07-31T11:16:05.710Z,27.10
2022-07-31T11:19:02.394Z,26.60
2022-07-31T11:21:39.558Z,26.70
2022-07-31T11:24:19.030Z,27.30
2022-07-31T11:26:54.750Z,27.90
2022-07-31T11:30:00.509Z,28.00
2022-07-31T11:32:25.812Z,28.30
2022-07-31T11:34:56.114Z,29.00
2022-07-31T11:37:46.336Z,29.20
2022-07-31T11:40:20.443Z,29.70
2022-07-31T11:43:04.943Z,28.50
2022-07-31T11:45:49.806Z,27.50
2022-07-31T11:48:19.138Z,26.90
2022-07-31T11:50:50.348Z,26.70
2022-07-31T11:53:19.229Z,27.50
2022-07-31T11:55:52.089Z,28.30
2022-07-31T11:58:20.733Z,28.90
2022-07-31T12:01:09.044Z,28.40
2022-07-31T12:03:38.558Z,28.00
2022-07-31T12:06:07.527Z,27.50
2022-07-31T12:08:35.654Z,27.00
2022-07-31T12:11:05.633Z,27.50
2022-07-31T12:13:32.966Z,28.60
2022-07-31T12:16:11.197Z,29.70
2022-07-31T12:18:53.996Z,29.70
2022-07-31T12:21:29.994Z,30.20
2022-07-31T12:23:58.333Z,29.90
2022-07-31T12:26:30.732Z,30.00
2022-07-31T12:29:09.802Z,30.50
2022-07-31T12:31:49.206Z,30.30
2022-07-31T12:34:30.597Z,30.10
2022-07-31T12:37:07.681Z,29.60
2022-07-31T12:39:54.840Z,29.40
2022-07-31T12:42:41.576Z,29.90
2022-07-31T12:45:19.076Z,29.80
2022-07-31T12:47:51.911Z,29.70
2022-07-31T12:50:21.435Z,29.90
2022-07-31T12:52:48.991Z,29.60
2022-07-31T12:55:17.186Z,29.30
2022-07-31T12:57:51.344Z,29.40
2022-07-31T13:00:22.795Z,29.70
2022-07-31T13:02:55.052Z,30.00
2022-07-31T13:05:23.718Z,29.90
2022-07-31T13:07:51.626Z,30.30
2022-07-31T13:10:23.959Z,30.70
2022-07-31T13:12:53.284Z,30.90
2022-07-31T13:15:30.967Z,30.50
2022-07-31T13:18:02.103Z,30.40
2022-07-31T13:20:31.052Z,30.50
2022-07-31T13:22:59.570Z,31.00
2022-07-31T13:25:30.369Z,30.90
2022-07-31T13:27:58.678Z,30.80
2022-07-31T13:30:27.681Z,31.10
2022-07-31T13:32:55.865Z,30.70
2022-07-31T13:35:27.793Z,30.70
2022-07-31T13:37:56.527Z,30.90
2022-07-31T13:40:43.130Z,31.00
2022-07-31T13:43:10.615Z,31.20
2022-07-31T13:45:38.217Z,30.70
2022-07-31T13:48:09.259Z,30.50
2022-07-31T13:50:39.652Z,30.10
2022-07-31T13:53:07.780Z,29.70
2022-07-31T13:55:35.362Z,30.40
2022-07-31T13:58:02.819Z,30.70
2022-07-31T14:00:30.402Z,30.70
2022-07-31T14:02:58.069Z,29.60
2022-07-31T14:05:26.756Z,28.60
2022-07-31T14:08:32.976Z,29.20
2022-07-31T14:10:49.966Z,29.90
2022-07-31T14:13:20.000Z,30.30
2022-07-31T14:15:47.596Z,30.00
2022-07-31T14:18:15.663Z,30.10
2022-07-31T14:20:43.078Z,29.70
2022-07-31T14:23:10.511Z,30.10
2022-07-31T14:25:38.940Z,30.50
2022-07-31T14:28:07.110Z,29.80
2022-07-31T14:30:35.067Z,29.00
2022-07-31T14:33:02.685Z,29.30
2022-07-31T14:35:30.060Z,29.80
2022-07-31T14:37:59.902Z,30.30
2022-07-31T14:40:30.802Z,29.80
2022-07-31T14:42:58.488Z,28.80
2022-07-31T14:45:25.848Z,29.50
2022-07-31T14:47:55.297Z,29.80
2022-07-31T14:50:23.409Z,29.30
2022-07-31T14:52:51.037Z,29.30
2022-07-31T14:55:19.630Z,29.10
2022-07-31T14:57:47.029Z,28.60
2022-07-31T15:00:15.191Z,28.00
2022-07-31T15:02:43.791Z,27.90
2022-07-31T15:06:51.412Z,28.40
2022-07-31T15:07:59.719Z,28.80
2022-07-31T15:10:27.177Z,28.90
2022-07-31T15:12:54.523Z,29.40
2022-07-31T15:15:21.841Z,29.80
2022-07-31T15:17:49.220Z,29.70
2022-07-31T15:20:16.588Z,30.10
2022-07-31T15:22:43.969Z,29.80
2022-07-31T15:25:11.351Z,29.60
2022-07-31T15:27:38.796Z,29.40
2022-07-31T15:30:08.002Z,29.70
2022-07-31T15:32:39.937Z,29.50
2022-07-31T15:35:09.480Z,29.30
2022-07-31T15:37:38.679Z,29.10
2022-07-31T15:40:11.237Z,29.30
2022-07-31T15:42:42.024Z,29.40
2022-07-31T15:45:11.437Z,29.60
2022-07-31T15:47:39.946Z,29.90
2022-07-31T15:50:09.870Z,29.80
2022-07-31T15:52:37.813Z,30.20
2022-07-31T15:55:06.459Z,30.80
2022-07-31T15:57:33.851Z,30.20
2022-07-31T16:00:01.247Z,30.50
2022-07-31T16:02:28.689Z,31.20
2022-07-31T16:04:58.630Z,31.10
2022-07-31T16:08:31.562Z,31.20
2022-07-31T16:10:18.429Z,31.00
2022-07-31T16:12:46.611Z,30.70
2022-07-31T16:15:15.019Z,29.80
2022-07-31T16:17:44.330Z,29.70
2022-07-31T16:20:26.458Z,29.80
2022-07-31T16:22:58.107Z,30.10
2022-07-31T16:25:26.667Z,29.80
2022-07-31T16:27:54.457Z,29.70
2022-07-31T16:30:22.285Z,29.60
2022-07-31T16:32:50.257Z,28.80
2022-07-31T16:35:17.616Z,28.60
2022-07-31T16:37:51.975Z,28.50
2022-07-31T16:40:28.030Z,28.30
2022-07-31T16:43:47.652Z,28.20
2022-07-31T16:45:54.449Z,28.10
2022-07-31T16:48:22.228Z,28.00
2022-07-31T16:50:53.771Z,27.80
2022-07-31T16:54:10.534Z,27.70
2022-07-31T16:56:15.193Z,27.50
2022-07-31T16:58:43.952Z,27.40
2022-07-31T17:01:58.918Z,27.20
2022-07-31T17:04:03.674Z,27.00
2022-07-31T17:06:36.125Z,26.90
2022-07-31T17:09:16.422Z,26.60
2022-07-31T17:11:47.144Z,26.60
2022-07-31T17:14:15.906Z,26.60
2022-07-31T17:16:47.056Z,26.60
2022-07-31T17:19:15.559Z,26.50
2022-07-31T17:21:44.494Z,26.50
2022-07-31T17:24:15.791Z,26.30
2022-07-31T17:26:44.136Z,26.20
2022-07-31T17:29:12.463Z,26.10
2022-07-31T17:31:39.764Z,26.00
2022-07-31T17:34:09.232Z,26.00
2022-07-31T17:36:37.214Z,26.00
2022-07-31T17:39:05.915Z,26.10
2022-07-31T17:41:33.270Z,26.10
2022-07-31T17:44:02.444Z,26.10
2022-07-31T17:46:34.768Z,26.10
2022-07-31T17:49:19.710Z,26.00
2022-07-31T17:51:59.983Z,26.00
2022-07-31T17:54:35.816Z,25.90
2022-07-31T17:57:04.085Z,25.80
2022-07-31T17:59:31.913Z,25.70
2022-07-31T18:02:00.360Z,25.60
2022-07-31T18:04:33.038Z,25.30
2022-07-31T18:07:01.761Z,25.30
2022-07-31T18:09:29.271Z,25.00
2022-07-31T18:11:57.856Z,24.90
2022-07-31T18:14:25.273Z,24.80
2022-07-31T18:16:53.071Z,24.70
2022-07-31T18:19:23.801Z,24.60
2022-07-31T18:21:51.751Z,24.50
2022-07-31T18:24:20.810Z,24.50
2022-07-31T18:26:49.322Z,24.40
2022-07-31T18:29:17.939Z,24.40
2022-07-31T18:31:45.609Z,24.40
2022-07-31T18:34:13.915Z,24.40
2022-07-31T18:36:41.300Z,24.40
2022-07-31T18:39:08.773Z,24.20
2022-07-31T18:41:37.260Z,24.20
2022-07-31T18:44:05.082Z,24.10
2022-07-31T18:46:32.406Z,24.00
2022-07-31T18:49:00.522Z,24.10
2022-07-31T18:51:29.374Z,24.20
2022-07-31T18:53:58.162Z,24.20
2022-07-31T18:56:26.525Z,24.00
2022-07-31T18:58:54.780Z,23.90
2022-07-31T19:01:23.663Z,23.90
2022-07-31T19:03:51.854Z,23.60
2022-07-31T19:06:19.427Z,23.60
2022-07-31T19:08:49.500Z,23.50
2022-07-31T19:11:16.976Z,23.30
2022-07-31T19:13:44.729Z,23.20
2022-07-31T19:16:12.222Z,23.10
2022-07-31T19:18:42.041Z,23.00
2022-07-31T19:21:21.155Z,23.00
2022-07-31T19:23:51.575Z,23.00
2022-07-31T19:26:19.045Z,23.00
2022-07-31T19:28:46.554Z,23.10
2022-07-31T19:31:14.022Z,23.10
2022-07-31T19:33:41.557Z,23.20
2022-07-31T19:36:10.771Z,23.20
2022-07-31T19:38:40.908Z,23.20
2022-07-31T19:41:08.245Z,23.30
2022-07-31T19:43:35.866Z,23.20
2022-07-31T19:46:11.770Z,23.10
2022-07-31T19:48:45.269Z,23.10
2022-07-31T19:51:14.227Z,23.00
2022-07-31T19:53:42.666Z,22.90
2022-07-31T19:56:15.664Z,22.90
2022-07-31T19:58:47.893Z,22.90
2022-07-31T20:01:15.436Z,23.00
2022-07-31T20:03:43.169Z,23.00
2022-07-31T20:06:10.552Z,23.10
2022-07-31T20:08:37.957Z,23.10
2022-07-31T20:11:05.621Z,23.00
2022-07-31T20:13:34.281Z,22.90
2022-07-31T20:16:01.823Z,22.80
2022-07-31T20:18:30.524Z,22.80
2022-07-31T20:21:06.975Z,22.70
2022-07-31T20:23:38.028Z,22.60
2022-07-31T20:26:07.061Z,22.50
2022-07-31T20:28:34.976Z,22.60
2022-07-31T20:31:02.596Z,22.60
2022-07-31T20:33:29.973Z,22.60
2022-07-31T20:35:57.420Z,22.60
2022-07-31T20:38:24.753Z,22.70
2022-07-31T20:40:55.465Z,22.70
2022-07-31T20:43:24.621Z,22.70
2022-07-31T20:45:53.170Z,22.90
2022-07-31T20:48:24.229Z,22.90
2022-07-31T20:50:52.630Z,22.80
2022-07-31T20:53:21.036Z,22.70
2022-07-31T20:55:50.257Z,22.70
2022-07-31T20:58:19.212Z,22.60
2022-07-31T21:00:47.825Z,22.50
2022-07-31T21:03:16.323Z,22.40
2022-07-31T21:05:44.729Z,22.30
2022-07-31T21:08:12.512Z,22.30
2022-07-31T21:10:40.169Z,22.20
2022-07-31T21:13:07.569Z,22.10
2022-07-31T21:15:43.889Z,22.20
2022-07-31T21:18:16.545Z,22.20
2022-07-31T21:20:50.778Z,22.20
2022-07-31T21:23:21.645Z,22.20
2022-07-31T21:25:49.625Z,22.40
2022-07-31T21:28:17.338Z,22.40
2022-07-31T21:30:44.978Z,22.50
2022-07-31T21:33:12.612Z,22.60
2022-07-31T21:35:40.753Z,22.70
2022-07-31T21:38:14.668Z,22.60
2022-07-31T21:40:43.018Z,22.70
2022-07-31T21:43:10.850Z,22.70
2022-07-31T21:45:50.809Z,22.80
2022-07-31T21:48:25.459Z,22.80
2022-07-31T21:50:53.965Z,22.80
2022-07-31T21:53:22.178Z,22.70
2022-07-31T21:55:50.077Z,22.60
2022-07-31T21:58:17.880Z,22.50
2022-07-31T22:00:45.508Z,22.40
2022-07-31T22:03:12.927Z,22.40
2022-07-31T22:05:59.223Z,22.30
2022-07-31T22:08:26.574Z,22.20
2022-07-31T22:10:54.016Z,22.30
2022-07-31T22:13:21.626Z,22.20
2022-07-31T22:15:55.476Z,22.20
2022-07-31T22:18:33.408Z,22.20
2022-07-31T22:21:03.158Z,22.20
2022-07-31T22:23:30.917Z,22.10
2022-07-31T22:25:58.940Z,22.10
2022-07-31T22:28:27.449Z,22.10
2022-07-31T22:30:56.067Z,22.10
2022-07-31T22:33:24.232Z,22.10
2022-07-31T22:35:58.531Z,22.10
2022-07-31T22:38:29.603Z,22.10
2022-07-31T22:40:58.349Z,22.00
2022-07-31T22:44:11.541Z,22.00
2022-07-31T22:46:14.066Z,22.00
2022-07-31T22:48:41.661Z,21.90
2022-07-31T22:51:12.961Z,21.90
2022-07-31T22:53:43.761Z,21.90
2022-07-31T22:56:11.203Z,21.80
2022-07-31T22:58:38.657Z,21.90
2022-07-31T23:01:06.035Z,22.00
2022-07-31T23:03:33.350Z,21.80
2022-07-31T23:06:02.607Z,21.70
2022-07-31T23:08:53.746Z,21.60
2022-07-31T23:11:24.539Z,21.50
2022-07-31T23:13:52.373Z,21.40
2022-07-31T23:16:20.549Z,21.30
2022-07-31T23:18:48.689Z,21.30
2022-07-31T23:21:16.912Z,21.20
2022-07-31T23:23:48.792Z,21.20
2022-07-31T23:26:20.841Z,21.20
2022-07-31T23:28:48.752Z,21.10
2022-07-31T23:31:16.846Z,21.00
2022-07-31T23:33:44.885Z,21.00
2022-07-31T23:36:12.403Z,20.90
2022-07-31T23:38:40.164Z,20.90
2022-07-31T23:41:07.737Z,20.80
2022-07-31T23:43:35.065Z,20.90
2022-07-31T23:46:03.268Z,20.80
2022-07-31T23:48:31.098Z,20.70
2022-07-31T23:50:58.966Z,20.60
2022-07-31T23:53:26.297Z,20.60
2022-07-31T23:55:53.756Z,20.50
2022-07-31T23:58:21.206Z,20.50
